createdAt,value
2023-04-02T00:01:22.514Z,11.43
2023-04-02T00:03:48.995Z,11.18
2023-04-02T00:06:34.148Z,10.65
2023-04-02T00:09:03.327Z,10.88
2023-04-02T00:11:36.141Z,10.90
2023-04-02T00:14:15.264Z,10.85
2023-04-02T00:16:42.123Z,12.68
2023-04-02T00:19:16.592Z,11.70
2023-04-02T00:21:45.665Z,13.15
2023-04-02T00:24:19.737Z,9.98
2023-04-02T00:26:52.238Z,13.30
2023-04-02T00:29:19.823Z,8.40
2023-04-02T00:31:51.678Z,12.98
2023-04-02T00:34:33.292Z,11.23
2023-04-02T00:37:00.263Z,14.63
2023-04-02T00:39:30.531Z,14.00
2023-04-02T00:41:58.956Z,11.93
2023-04-02T00:44:29.491Z,11.50
2023-04-02T00:46:56.274Z,11.63
2023-04-02T00:49:38.258Z,14.00
2023-04-02T00:52:26.789Z,10.13
2023-04-02T00:55:17.974Z,11.77
2023-04-02T00:57:45.328Z,8.85
2023-04-02T01:00:15.089Z,13.23
2023-04-02T01:02:42.370Z,10.32
2023-04-02T01:05:14.694Z,10.75
2023-04-02T01:08:02.507Z,11.93
2023-04-02T01:13:20.346Z,11.90
2023-04-02T01:16:27.449Z,12.32
2023-04-02T01:19:17.515Z,12.63
2023-04-02T01:21:57.107Z,10.10
2023-04-02T01:24:29.403Z,11.25
2023-04-02T01:26:59.040Z,12.65
2023-04-02T01:29:27.756Z,11.60
2023-04-02T01:31:58.248Z,13.20
2023-04-02T01:34:26.928Z,13.85
2023-04-02T01:37:24.530Z,13.10
2023-04-02T01:39:53.755Z,12.98
2023-04-02T01:42:31.720Z,13.43
2023-04-02T01:45:05.410Z,14.32
2023-04-02T01:47:32.615Z,14.57
2023-04-02T01:50:11.860Z,14.70
2023-04-02T01:52:41.683Z,15.07
2023-04-02T01:55:10.178Z,17.83
2023-04-02T01:57:36.729Z,15.18
2023-04-02T02:00:04.980Z,15.13
2023-04-02T02:02:31.652Z,13.70
2023-04-02T02:04:58.437Z,17.33
2023-04-02T02:07:25.060Z,13.98
2023-04-02T02:09:51.899Z,13.77
2023-04-02T02:12:18.561Z,13.25
2023-04-02T02:14:50.328Z,14.43
2023-04-02T02:17:22.740Z,12.25
2023-04-02T02:19:58.405Z,11.98
2023-04-02T02:22:42.166Z,14.23
2023-04-02T02:25:16.906Z,14.25
2023-04-02T02:27:59.031Z,12.88
2023-04-02T02:30:38.881Z,13.60
2023-04-02T02:33:15.088Z,14.00
2023-04-02T02:35:58.897Z,15.15
2023-04-02T02:38:34.908Z,15.73
2023-04-02T02:43:32.766Z,17.45
2023-04-02T02:46:00.692Z,20.98
2023-04-02T02:48:36.037Z,16.65
2023-04-02T02:51:08.987Z,17.23
2023-04-02T02:53:48.914Z,16.10
2023-04-02T02:56:15.803Z,18.00
2023-04-02T02:58:42.443Z,12.93
2023-04-02T03:01:09.617Z,11.85
2023-04-02T03:03:36.601Z,16.63
2023-04-02T03:06:06.285Z,13.35
2023-04-02T03:08:40.565Z,14.82
2023-04-02T03:11:18.963Z,13.20
2023-04-02T03:13:49.493Z,11.73
2023-04-02T03:16:28.219Z,13.55
2023-04-02T03:19:22.590Z,12.85
2023-04-02T03:21:58.442Z,13.25
2023-04-02T03:24:57.758Z,12.73
2023-04-02T03:27:29.918Z,16.58
2023-04-02T03:30:22.375Z,15.23
2023-04-02T03:32:54.175Z,16.63
2023-04-02T03:35:59.037Z,17.08
2023-04-02T03:38:30.136Z,11.38
2023-04-02T03:41:04.935Z,14.15
2023-04-02T03:43:37.026Z,16.50
2023-04-02T03:46:23.408Z,16.48
2023-04-02T03:48:55.742Z,15.30
2023-04-02T03:51:32.675Z,17.75
2023-04-02T03:53:59.446Z,16.75
2023-04-02T03:56:30.469Z,13.27
2023-04-02T03:59:28.069Z,11.57
2023-04-02T04:02:26.840Z,11.75
2023-04-02T04:04:55.542Z,10.45
2023-04-02T04:07:33.208Z,11.95
2023-04-02T04:10:01.330Z,10.85
2023-04-02T04:12:39.077Z,12.43
2023-04-02T04:15:23.060Z,10.55
2023-04-02T04:18:17.271Z,11.13
2023-04-02T04:21:07.186Z,12.77
2023-04-02T04:23:38.988Z,15.40
2023-04-02T04:26:21.181Z,14.98
2023-04-02T04:29:12.682Z,15.93
2023-04-02T04:31:46.680Z,13.80
2023-04-02T04:34:21.746Z,14.73
2023-04-02T04:36:53.571Z,15.75
2023-04-02T04:39:31.799Z,14.68
2023-04-02T04:42:00.811Z,16.40
2023-04-02T04:44:44.190Z,15.98
2023-04-02T04:47:28.854Z,16.73
2023-04-02T04:50:05.972Z,13.48
2023-04-02T04:52:36.921Z,14.00
2023-04-02T04:55:29.252Z,14.70
2023-04-02T04:58:02.539Z,13.88
2023-04-02T05:00:59.652Z,16.35
2023-04-02T05:03:48.548Z,14.73
2023-04-02T05:06:35.126Z,18.95
2023-04-02T05:09:19.730Z,16.48
2023-04-02T05:11:54.974Z,12.85
2023-04-02T05:14:37.355Z,13.65
2023-04-02T05:17:13.461Z,13.70
2023-04-02T05:19:50.006Z,12.93
2023-04-02T05:22:41.236Z,14.55
2023-04-02T05:25:24.681Z,16.65
2023-04-02T05:28:10.883Z,16.35
2023-04-02T05:30:44.761Z,14.15
2023-04-02T05:33:28.438Z,13.85
2023-04-02T05:36:11.295Z,14.43
2023-04-02T05:38:43.373Z,13.48
2023-04-02T05:41:28.585Z,12.05
2023-04-02T05:44:16.623Z,11.30
2023-04-02T05:46:51.181Z,14.55
2023-04-02T05:49:47.018Z,13.98
2023-04-02T05:52:20.119Z,12.90
2023-04-02T05:54:52.210Z,13.93
2023-04-02T05:57:39.412Z,13.55
2023-04-02T06:00:15.958Z,14.23
2023-04-02T06:02:52.911Z,13.90
2023-04-02T06:05:24.045Z,16.23
2023-04-02T06:08:17.100Z,17.98
2023-04-02T06:11:09.319Z,17.00
2023-04-02T06:13:35.905Z,18.88
2023-04-02T06:16:03.345Z,17.38
2023-04-02T06:18:34.421Z,15.23
2023-04-02T06:21:01.846Z,13.10
2023-04-02T06:23:51.247Z,13.95
2023-04-02T06:26:39.540Z,13.02
2023-04-02T06:29:23.503Z,16.20
2023-04-02T06:31:58.586Z,15.75
2023-04-02T06:34:27.461Z,22.27
2023-04-02T06:37:04.307Z,19.50
2023-04-02T06:39:30.874Z,20.15
2023-04-02T06:42:13.795Z,18.92
2023-04-02T06:44:40.955Z,16.90
2023-04-02T06:47:22.721Z,19.02
2023-04-02T06:50:21.508Z,22.48
2023-04-02T06:52:52.345Z,21.67
2023-04-02T06:55:37.613Z,23.85
2023-04-02T06:58:04.358Z,20.65
2023-04-02T07:00:38.511Z,17.60
2023-04-02T07:03:08.467Z,14.07
2023-04-02T07:05:35.177Z,15.20
2023-04-02T07:08:01.914Z,14.07
2023-04-02T07:10:28.467Z,15.80
2023-04-02T07:12:54.945Z,12.70
2023-04-02T07:15:21.673Z,17.48
2023-04-02T07:17:48.373Z,14.70
2023-04-02T07:20:30.368Z,18.98
2023-04-02T07:25:24.898Z,12.80
2023-04-02T07:27:52.748Z,13.98
2023-04-02T07:30:19.534Z,11.02
2023-04-02T07:32:46.130Z,16.60
2023-04-02T07:35:12.830Z,15.07
2023-04-02T07:37:39.785Z,15.95
2023-04-02T07:40:19.116Z,16.95
2023-04-02T07:42:45.657Z,20.73
2023-04-02T07:45:12.498Z,22.95
2023-04-02T07:47:39.072Z,24.38
2023-04-02T07:50:06.662Z,21.52
2023-04-02T07:52:40.519Z,18.42
2023-04-02T07:55:07.932Z,21.35
2023-04-02T07:57:38.519Z,19.73
2023-04-02T08:00:05.697Z,21.40
2023-04-02T08:02:32.277Z,15.48
2023-04-02T08:04:58.818Z,15.45
2023-04-02T08:07:27.498Z,13.52
2023-04-02T08:09:54.049Z,19.48
2023-04-02T08:12:20.633Z,20.55
2023-04-02T08:14:47.283Z,20.45
2023-04-02T08:17:13.754Z,18.67
2023-04-02T08:19:53.666Z,17.48
2023-04-02T08:22:21.432Z,14.95
2023-04-02T08:24:47.915Z,14.35
2023-04-02T08:27:14.478Z,16.88
2023-04-02T08:29:40.969Z,17.02
2023-04-02T08:32:07.490Z,15.90
2023-04-02T08:34:34.040Z,15.13
2023-04-02T08:37:00.559Z,19.15
2023-04-02T08:39:27.027Z,15.55
2023-04-02T08:42:02.882Z,18.10
2023-04-02T08:44:32.227Z,11.13
2023-04-02T08:47:05.232Z,14.73
2023-04-02T08:49:35.925Z,13.52
2023-04-02T08:52:02.531Z,16.80
2023-04-02T08:54:34.349Z,12.65
2023-04-02T08:57:23.364Z,10.38
2023-04-02T08:59:58.766Z,12.10
2023-04-02T09:02:45.772Z,11.73
2023-04-02T09:05:20.494Z,12.85
2023-04-02T09:07:49.956Z,15.65
2023-04-02T09:10:17.546Z,10.45
2023-04-02T09:12:49.069Z,10.98
2023-04-02T09:15:33.377Z,9.45
2023-04-02T09:18:11.089Z,8.43
2023-04-02T09:20:37.719Z,8.80
2023-04-02T09:23:05.605Z,9.70
2023-04-02T09:25:32.190Z,9.65
2023-04-02T09:28:02.154Z,11.10
2023-04-02T09:30:31.757Z,11.57
2023-04-02T09:33:03.654Z,9.25
2023-04-02T09:35:32.462Z,11.32
2023-04-02T09:38:18.627Z,10.48
2023-04-02T09:40:54.016Z,11.02
2023-04-02T09:43:26.337Z,11.48
2023-04-02T09:46:12.956Z,10.75
2023-04-02T09:48:52.398Z,9.35
2023-04-02T09:51:21.731Z,9.20
2023-04-02T09:53:50.495Z,8.75
2023-04-02T09:56:24.424Z,9.38
2023-04-02T09:59:21.581Z,8.10
2023-04-02T10:01:59.027Z,12.90
2023-04-02T10:04:45.333Z,7.78
2023-04-02T10:07:42.547Z,7.90
2023-04-02T10:10:30.185Z,9.98
2023-04-02T10:13:07.243Z,7.30
2023-04-02T10:15:42.151Z,6.90
2023-04-02T10:18:56.616Z,11.10
2023-04-02T10:21:27.083Z,6.43
2023-04-02T10:23:54.925Z,8.35
2023-04-02T10:26:47.335Z,9.63
2023-04-02T10:29:35.744Z,9.82
2023-04-02T10:32:08.207Z,9.63
2023-04-02T10:34:43.650Z,8.80
2023-04-02T10:37:36.428Z,8.45
2023-04-02T10:40:11.493Z,8.55
2023-04-02T10:43:22.555Z,8.80
2023-04-02T10:46:04.096Z,12.27
2023-04-02T10:48:50.574Z,8.60
2023-04-02T10:51:42.888Z,9.15
2023-04-02T10:54:31.503Z,11.73
2023-04-02T10:57:23.729Z,10.88
2023-04-02T11:00:03.687Z,9.52
2023-04-02T11:02:30.202Z,9.82
2023-04-02T11:05:02.136Z,10.90
2023-04-02T11:07:33.857Z,11.68
2023-04-02T11:10:01.546Z,12.57
2023-04-02T11:12:46.480Z,11.70
2023-04-02T11:15:18.233Z,10.50
2023-04-02T11:17:45.804Z,10.85
2023-04-02T11:20:43.474Z,12.15
2023-04-02T11:23:14.905Z,10.63
2023-04-02T11:25:43.041Z,9.77
2023-04-02T11:28:27.753Z,10.60
2023-04-02T11:30:56.054Z,9.70
2023-04-02T11:33:38.194Z,11.65
2023-04-02T11:36:44.445Z,8.32
2023-04-02T11:39:17.413Z,9.55
2023-04-02T11:42:04.506Z,10.93
2023-04-02T11:44:31.040Z,10.38
2023-04-02T11:47:16.356Z,9.57
2023-04-02T11:49:55.183Z,8.90
2023-04-02T11:52:29.694Z,7.90
2023-04-02T11:55:20.777Z,8.40
2023-04-02T11:58:01.689Z,8.05
2023-04-02T12:00:56.817Z,9.30
2023-04-02T12:03:45.576Z,8.88
2023-04-02T12:06:49.111Z,9.55
2023-04-02T12:09:20.341Z,5.75
2023-04-02T12:11:48.137Z,7.50
2023-04-02T12:14:51.067Z,6.40
2023-04-02T12:17:24.559Z,9.25
2023-04-02T12:19:54.523Z,7.97
2023-04-02T12:22:25.347Z,7.05
2023-04-02T12:24:55.659Z,7.68
2023-04-02T12:27:26.094Z,8.18
2023-04-02T12:29:53.060Z,8.93
2023-04-02T12:32:30.007Z,8.02
2023-04-02T12:34:58.715Z,6.63
2023-04-02T12:37:27.804Z,5.70
2023-04-02T12:40:15.867Z,8.07
2023-04-02T12:42:42.359Z,7.97
2023-04-02T12:45:30.102Z,7.05
2023-04-02T12:50:24.274Z,6.32
2023-04-02T12:52:52.943Z,7.10
2023-04-02T12:55:21.986Z,6.43
2023-04-02T12:57:48.756Z,8.00
2023-04-02T13:00:21.255Z,8.05
2023-04-02T13:03:16.726Z,7.35
2023-04-02T13:05:48.876Z,7.07
2023-04-02T13:08:40.384Z,7.00
2023-04-02T13:11:07.117Z,5.55
2023-04-02T13:13:36.936Z,8.02
2023-04-02T13:16:28.100Z,6.38
2023-04-02T13:19:38.836Z,5.38
2023-04-02T13:22:31.626Z,7.22
2023-04-02T13:24:58.130Z,8.82
2023-04-02T13:27:24.667Z,10.18
2023-04-02T13:29:51.137Z,5.90
2023-04-02T13:32:17.650Z,6.75
2023-04-02T13:34:44.158Z,9.57
2023-04-02T13:37:12.678Z,18.00
2023-04-02T13:39:39.223Z,13.40
2023-04-02T13:42:06.959Z,11.50
2023-04-02T13:44:35.437Z,12.30
2023-04-02T13:47:02.014Z,9.88
2023-04-02T13:49:29.227Z,6.40
2023-04-02T13:51:59.138Z,9.77
2023-04-02T13:54:30.138Z,9.32
2023-04-02T13:56:57.310Z,8.68
2023-04-02T13:59:24.359Z,11.95
2023-04-02T14:01:52.917Z,7.55
2023-04-02T14:04:25.270Z,6.88
2023-04-02T14:07:22.678Z,6.53
2023-04-02T14:10:07.969Z,5.88
2023-04-02T14:12:37.202Z,7.15
2023-04-02T14:15:15.486Z,7.72
2023-04-02T14:18:05.792Z,7.28
2023-04-02T14:20:41.272Z,6.45
2023-04-02T14:23:31.750Z,10.30
2023-04-02T14:26:13.388Z,5.57
2023-04-02T14:28:58.704Z,7.97
2023-04-02T14:31:34.579Z,9.02
2023-04-02T14:34:33.107Z,6.20
2023-04-02T14:37:45.310Z,6.45
2023-04-02T14:40:40.505Z,5.32
2023-04-02T14:43:15.780Z,7.22
2023-04-02T14:45:59.610Z,5.22
2023-04-02T14:48:52.511Z,5.80
2023-04-02T14:51:29.029Z,5.03
2023-04-02T14:54:11.203Z,4.50
2023-04-02T14:56:49.170Z,5.93
2023-04-02T14:59:25.867Z,5.13
2023-04-02T15:02:04.020Z,4.70
2023-04-02T15:04:42.854Z,5.90
2023-04-02T15:07:40.344Z,5.60
2023-04-02T15:10:17.824Z,4.88
2023-04-02T15:12:49.611Z,6.55
2023-04-02T15:15:40.392Z,4.97
2023-04-02T15:18:20.785Z,4.63
2023-04-02T15:21:08.024Z,4.72
2023-04-02T15:23:54.461Z,4.88
2023-04-02T15:26:58.858Z,5.63
2023-04-02T15:29:44.044Z,4.78
2023-04-02T15:32:41.272Z,4.78
2023-04-02T15:35:15.894Z,4.68
2023-04-02T15:37:57.573Z,4.95
2023-04-02T15:41:04.438Z,5.78
2023-04-02T15:43:46.515Z,5.70
2023-04-02T15:46:45.042Z,5.80
2023-04-02T15:49:21.267Z,4.65
2023-04-02T15:52:08.983Z,5.30
2023-04-02T15:57:54.444Z,5.65
2023-04-02T16:00:25.196Z,6.70
2023-04-02T16:03:16.480Z,6.32
2023-04-02T16:06:12.366Z,5.80
2023-04-02T16:09:02.699Z,5.50
2023-04-02T16:11:30.507Z,15.68
2023-04-02T16:14:14.206Z,8.45
2023-04-02T16:16:42.666Z,8.45
2023-04-02T16:19:27.018Z,5.18
2023-04-02T16:22:29.275Z,7.75
2023-04-02T16:25:18.027Z,9.13
2023-04-02T16:28:04.985Z,5.63
2023-04-02T16:30:36.147Z,5.80
2023-04-02T16:33:23.643Z,5.03
2023-04-02T16:36:08.317Z,5.53
2023-04-02T16:38:37.835Z,4.63
2023-04-02T16:41:10.241Z,6.57
2023-04-02T16:43:50.415Z,5.47
2023-04-02T16:46:50.528Z,7.88
2023-04-02T16:49:25.978Z,5.55
2023-04-02T16:52:16.864Z,7.63
2023-04-02T16:54:58.163Z,4.50
2023-04-02T16:57:36.434Z,4.82
2023-04-02T17:00:20.558Z,4.63
2023-04-02T17:03:06.135Z,4.07
2023-04-02T17:05:40.231Z,29.17
2023-04-02T17:08:51.325Z,6.00
2023-04-02T17:11:28.464Z,5.60
2023-04-02T17:14:05.551Z,5.15
2023-04-02T17:16:44.331Z,3.78
2023-04-02T17:19:13.506Z,4.85
2023-04-02T17:21:43.054Z,4.88
2023-04-02T17:24:23.979Z,5.05
2023-04-02T17:27:11.882Z,3.88
2023-04-02T17:29:42.974Z,5.93
2023-04-02T17:32:25.873Z,8.27
2023-04-02T17:34:52.521Z,4.22
2023-04-02T17:37:28.831Z,5.05
2023-04-02T17:40:03.914Z,4.80
2023-04-02T17:43:30.754Z,4.25
2023-04-02T17:46:18.655Z,4.68
2023-04-02T17:48:47.000Z,4.22
2023-04-02T17:51:13.482Z,5.00
2023-04-02T17:54:10.082Z,5.88
2023-04-02T17:57:07.421Z,5.13
2023-04-02T18:00:06.388Z,5.32
2023-04-02T18:03:21.312Z,4.85
2023-04-02T18:06:29.344Z,4.70
2023-04-02T18:09:18.320Z,5.13
2023-04-02T18:12:03.620Z,7.43
2023-04-02T18:14:54.974Z,4.28
2023-04-02T18:17:41.846Z,6.45
2023-04-02T18:20:28.505Z,4.93
2023-04-02T18:23:04.082Z,5.65
2023-04-02T18:25:52.695Z,6.03
2023-04-02T18:28:54.621Z,4.80
2023-04-02T18:32:02.785Z,6.32
2023-04-02T18:35:06.592Z,6.50
2023-04-02T18:38:04.916Z,12.68
2023-04-02T18:41:16.763Z,8.70
2023-04-02T18:43:54.882Z,7.22
2023-04-02T18:46:28.886Z,10.80
2023-04-02T18:48:59.811Z,9.13
2023-04-02T18:51:31.071Z,7.75
2023-04-02T18:54:25.220Z,7.78
2023-04-02T18:56:51.717Z,8.32
2023-04-02T18:59:41.998Z,5.13
2023-04-02T19:02:25.687Z,4.75
2023-04-02T19:05:17.563Z,7.55
2023-04-02T19:07:46.137Z,8.02
2023-04-02T19:10:33.575Z,6.38
2023-04-02T19:13:00.857Z,6.53
2023-04-02T19:15:39.530Z,4.97
2023-04-02T19:18:29.149Z,5.18
2023-04-02T19:21:10.023Z,7.13
2023-04-02T19:24:02.011Z,7.78
2023-04-02T19:26:41.376Z,5.10
2023-04-02T19:29:20.613Z,6.97
2023-04-02T19:31:58.029Z,6.30
2023-04-02T19:34:41.194Z,6.30
2023-04-02T19:37:19.296Z,6.22
2023-04-02T19:40:01.089Z,6.22
2023-04-02T19:42:49.655Z,6.20
2023-04-02T19:45:29.811Z,6.32
2023-04-02T19:47:59.579Z,7.95
2023-04-02T19:50:26.351Z,6.25
2023-04-02T19:52:52.842Z,5.85
2023-04-02T19:55:20.604Z,6.60
2023-04-02T19:57:47.111Z,6.55
2023-04-02T20:00:14.666Z,10.25
2023-04-02T20:02:41.447Z,7.90
2023-04-02T20:05:08.325Z,8.80
2023-04-02T20:07:34.943Z,13.00
2023-04-02T20:10:01.478Z,9.48
2023-04-02T20:12:28.000Z,7.25
2023-04-02T20:14:54.468Z,6.35
2023-04-02T20:17:21.001Z,7.10
2023-04-02T20:19:53.430Z,7.07
2023-04-02T20:22:19.964Z,6.60
2023-04-02T20:24:46.461Z,7.85
2023-04-02T20:27:12.995Z,6.03
2023-04-02T20:29:39.583Z,5.57
2023-04-02T20:32:06.119Z,9.20
2023-04-02T20:34:32.760Z,8.55
2023-04-02T20:36:59.552Z,4.18
2023-04-02T20:39:26.167Z,4.60
2023-04-02T20:41:52.648Z,5.57
2023-04-02T20:44:22.005Z,5.78
2023-04-02T20:46:48.503Z,6.43
2023-04-02T20:49:15.026Z,5.50
2023-04-02T20:51:41.570Z,6.57
2023-04-02T20:54:08.186Z,5.43
2023-04-02T20:56:34.738Z,3.78
2023-04-02T20:59:01.250Z,7.68
2023-04-02T21:01:30.129Z,7.97
2023-04-02T21:03:58.759Z,6.60
2023-04-02T21:06:34.282Z,5.93
2023-04-02T21:09:08.284Z,10.35
2023-04-02T21:11:35.923Z,6.85
2023-04-02T21:14:03.915Z,5.10
2023-04-02T21:16:30.892Z,7.40
2023-04-02T21:19:02.746Z,7.13
2023-04-02T21:21:29.654Z,8.75
2023-04-02T21:23:58.928Z,7.78
2023-04-02T21:26:26.868Z,6.05
2023-04-02T21:28:53.782Z,6.50
2023-04-02T21:31:26.397Z,5.82
2023-04-02T21:33:55.652Z,8.50
2023-04-02T21:36:25.886Z,7.80
2023-04-02T21:43:51.263Z,6.60
2023-04-02T21:46:19.955Z,6.18
2023-04-02T21:48:47.802Z,5.75
2023-04-02T21:51:17.408Z,7.63
2023-04-02T21:53:44.937Z,6.70
2023-04-02T21:56:14.456Z,7.72
2023-04-02T21:58:41.559Z,6.43
2023-04-02T22:01:16.938Z,6.38
2023-04-02T22:03:47.368Z,5.88
2023-04-02T22:06:17.489Z,7.35
2023-04-02T22:08:44.569Z,4.95
2023-04-02T22:11:17.306Z,6.28
2023-04-02T22:13:45.580Z,6.60
2023-04-02T22:16:14.617Z,7.47
2023-04-02T22:18:41.589Z,7.82
2023-04-02T22:21:09.063Z,8.05
2023-04-02T22:23:36.364Z,6.13
2023-04-02T22:26:04.458Z,5.68
2023-04-02T22:28:31.012Z,7.05
2023-04-02T22:31:04.658Z,7.82
2023-04-02T22:33:32.355Z,6.75
2023-04-02T22:35:59.408Z,6.97
2023-04-02T22:38:26.192Z,6.82
2023-04-02T22:40:52.739Z,6.65
2023-04-02T22:43:19.205Z,9.02
2023-04-02T22:45:47.358Z,7.70
2023-04-02T22:48:13.916Z,7.35
2023-04-02T22:50:40.431Z,7.97
2023-04-02T22:53:06.936Z,6.43
2023-04-02T22:55:33.517Z,9.15
2023-04-02T22:57:59.976Z,6.50
2023-04-02T23:00:26.461Z,8.45
2023-04-02T23:02:52.987Z,8.32
2023-04-02T23:05:19.549Z,7.85
2023-04-02T23:07:47.299Z,7.47
2023-04-02T23:10:13.771Z,8.48
2023-04-02T23:12:40.256Z,8.32
2023-04-02T23:15:07.457Z,10.85
2023-04-02T23:17:34.107Z,7.95
2023-04-02T23:20:00.643Z,9.00
2023-04-02T23:22:27.137Z,8.98
2023-04-02T23:24:53.607Z,8.45
2023-04-02T23:27:21.747Z,7.60
2023-04-02T23:29:49.399Z,7.88
2023-04-02T23:32:16.620Z,9.25
2023-04-02T23:34:43.520Z,8.38
2023-04-02T23:37:10.194Z,8.68
2023-04-02T23:39:36.831Z,10.40
2023-04-02T23:42:03.473Z,11.18
2023-04-02T23:44:30.220Z,8.90
2023-04-02T23:46:56.911Z,8.45
2023-04-02T23:49:23.390Z,8.43
2023-04-02T23:51:49.923Z,9.65
2023-04-02T23:54:16.602Z,9.57
2023-04-02T23:56:43.081Z,7.07
2023-04-02T23:59:09.742Z,8.85
